Time;durP1;ratioP1;P1;durP2;ratioP2;P2;SDS_P1;SDS_P2;PMS_P1;PMS_P2;Temp;Humidity;BMP_temperature;BMP_pressure;BME280_temperature;BME280_humidity;BME280_pressure;Samples;Min_cycle;Max_cycle;Signal;HPM_P1;HPM_P2
2023/12/19 00:02:17;;;;;;;;;;;19.40;66.20;;;;;;7317158;19;9736;-71
2023/12/19 00:04:46;;;;;;;;;;;19.30;66.20;;;;;;7316135;19;9498;-71
2023/12/19 00:07:15;;;;;;;;;;;19.30;66.30;;;;;;7315738;19;9402;-70
2023/12/19 00:09:44;;;;;;;;;;;19.30;66.30;;;;;;7311569;19;9509;-70
2023/12/19 00:12:16;;;;;;;;;;;19.30;66.30;;;;;;7315642;19;9289;-70
2023/12/19 00:14:45;;;;;;;;;;;19.30;66.30;;;;;;7316186;19;9454;-70
2023/12/19 00:17:14;;;;;;;;;;;19.40;66.20;;;;;;7316135;19;9155;-70
2023/12/19 00:19:43;;;;;;;;;;;19.40;66.20;;;;;;7315532;19;9457;-70
2023/12/19 00:22:11;;;;;;;;;;;19.40;66.20;;;;;;7314802;19;9896;-70
2023/12/19 00:25:00;;;;;;;;;;;19.50;66.20;;;;;;7315400;19;9638;-70
2023/12/19 00:27:32;;;;;;;;;;;19.60;66.20;;;;;;7313418;19;9490;-70
2023/12/19 00:30:01;;;;;;;;;;;19.60;66.10;;;;;;7314205;19;9522;-70
2023/12/19 00:32:32;;;;;;;;;;;19.70;66.00;;;;;;7315299;19;9800;-70
2023/12/19 00:35:01;;;;;;;;;;;19.70;66.00;;;;;;7314812;19;10784;-70
2023/12/19 00:37:29;;;;;;;;;;;19.80;66.00;;;;;;7316575;19;9513;-70
2023/12/19 00:39:58;;;;;;;;;;;19.80;65.80;;;;;;7314012;19;9380;-70
2023/12/19 00:42:27;;;;;;;;;;;19.90;65.90;;;;;;7310115;19;9514;-70
2023/12/19 00:44:59;;;;;;;;;;;19.90;65.70;;;;;;7310931;19;9203;-70
2023/12/19 00:47:28;;;;;;;;;;;20.00;65.80;;;;;;7312988;19;9592;-70
2023/12/19 00:49:57;;;;;;;;;;;20.00;65.60;;;;;;7310658;19;9674;-70
2023/12/19 00:52:29;;;;;;;;;;;20.10;65.50;;;;;;7310556;19;10874;-70
2023/12/19 00:54:58;;;;;;;;;;;20.10;65.50;;;;;;7312674;19;9527;-70
2023/12/19 00:57:27;;;;;;;;;;;20.10;65.50;;;;;;7311480;19;9876;-70
2023/12/19 00:59:59;;;;;;;;;;;20.10;65.40;;;;;;7312071;19;11120;-70
2023/12/19 01:02:29;;;;;;;;;;;20.10;65.40;;;;;;7309107;19;9332;-70
2023/12/19 01:04:58;;;;;;;;;;;20.10;65.40;;;;;;7307246;19;10232;-70
2023/12/19 01:07:27;;;;;;;;;;;20.10;65.40;;;;;;7311489;19;9473;-70
2023/12/19 01:09:56;;;;;;;;;;;20.10;65.40;;;;;;7308122;19;9469;-70
2023/12/19 01:12:25;;;;;;;;;;;20.10;65.40;;;;;;7311666;19;9275;-70
2023/12/19 01:14:54;;;;;;;;;;;20.00;65.30;;;;;;7311570;19;9294;-70
2023/12/19 01:17:25;;;;;;;;;;;20.00;65.30;;;;;;7311553;19;9273;-70
2023/12/19 01:19:54;;;;;;;;;;;20.00;65.30;;;;;;7311064;19;9474;-69
2023/12/19 01:22:43;;;;;;;;;;;20.00;65.30;;;;;;7314306;19;9518;-69
2023/12/19 01:25:12;;;;;;;;;;;19.90;65.30;;;;;;7317592;19;9504;-69
2023/12/19 01:27:41;;;;;;;;;;;19.90;65.30;;;;;;7318636;19;9334;-70
2023/12/19 01:30:11;;;;;;;;;;;19.90;65.30;;;;;;7320184;19;9675;-70
2023/12/19 01:33:03;;;;;;;;;;;19.80;65.40;;;;;;7316061;19;9225;-70
2023/12/19 01:35:31;;;;;;;;;;;19.80;65.40;;;;;;7316295;19;9537;-70
2023/12/19 01:38:00;;;;;;;;;;;19.70;65.40;;;;;;7319711;19;9438;-69
2023/12/19 01:40:31;;;;;;;;;;;19.70;65.50;;;;;;7178272;19;2759601;-70
2023/12/19 01:43:00;;;;;;;;;;;19.60;65.50;;;;;;7320383;19;9514;-70
2023/12/19 01:45:31;;;;;;;;;;;19.60;65.70;;;;;;7320017;19;9774;-70
2023/12/19 01:48:25;;;;;;;;;;;19.60;65.70;;;;;;7319352;19;9645;-70
2023/12/19 01:50:54;;;;;;;;;;;19.50;65.70;;;;;;7318655;19;9008;-70
2023/12/19 01:53:26;;;;;;;;;;;19.50;65.80;;;;;;7319672;19;9617;-70
2023/12/19 01:55:57;;;;;;;;;;;19.40;65.80;;;;;;7318673;19;10973;-70
2023/12/19 01:58:29;;;;;;;;;;;19.40;65.90;;;;;;7320093;19;9411;-70
2023/12/19 02:00:59;;;;;;;;;;;19.40;65.90;;;;;;7319899;19;9378;-70
2023/12/19 02:03:31;;;;;;;;;;;19.30;66.00;;;;;;7317163;19;9393;-70
2023/12/19 02:06:01;;;;;;;;;;;19.30;66.10;;;;;;7320258;19;9471;-70
2023/12/19 02:08:30;;;;;;;;;;;19.30;66.10;;;;;;7316885;19;9367;-69
2023/12/19 02:10:59;;;;;;;;;;;19.30;66.10;;;;;;7318194;19;9719;-70
2023/12/19 02:13:28;;;;;;;;;;;19.30;66.00;;;;;;7314284;19;10165;-70
2023/12/19 02:15:57;;;;;;;;;;;19.40;66.00;;;;;;7318183;19;9643;-69
2023/12/19 02:18:26;;;;;;;;;;;19.40;66.00;;;;;;7317559;19;9458;-70
2023/12/19 02:20:58;;;;;;;;;;;19.40;66.00;;;;;;7315823;19;9405;-70
2023/12/19 02:23:29;;;;;;;;;;;19.50;66.00;;;;;;7318929;19;9473;-70
2023/12/19 02:25:58;;;;;;;;;;;19.60;65.90;;;;;;7316915;19;9450;-70
2023/12/19 02:28:27;;;;;;;;;;;19.60;65.80;;;;;;7318882;19;9160;-70
2023/12/19 02:30:56;;;;;;;;;;;19.60;65.70;;;;;;7319357;19;9201;-70
2023/12/19 02:33:25;;;;;;;;;;;19.70;65.70;;;;;;7318608;19;9466;-70
2023/12/19 02:35:54;;;;;;;;;;;19.80;65.70;;;;;;7317576;19;9674;-70
2023/12/19 02:38:29;;;;;;;;;;;19.80;65.60;;;;;;7319317;19;9518;-69
2023/12/19 02:40:58;;;;;;;;;;;19.90;65.60;;;;;;7315322;19;9442;-70
2023/12/19 02:43:27;;;;;;;;;;;19.90;65.50;;;;;;7319224;19;9537;-70
2023/12/19 02:45:56;;;;;;;;;;;20.00;66.10;;;;;;7317730;19;9444;-70
2023/12/19 02:48:24;;;;;;;;;;;20.10;65.50;;;;;;7318667;19;9795;-70
2023/12/19 02:50:53;;;;;;;;;;;20.10;65.30;;;;;;7317654;19;9467;-70
2023/12/19 02:53:22;;;;;;;;;;;20.10;65.30;;;;;;7317177;19;9218;-70
2023/12/19 02:55:55;;;;;;;;;;;20.10;65.20;;;;;;7318488;19;9475;-70
2023/12/19 02:58:24;;;;;;;;;;;20.10;65.20;;;;;;7313325;19;10738;-70
2023/12/19 03:00:52;;;;;;;;;;;20.10;65.20;;;;;;7318271;19;9239;-70
2023/12/19 03:03:21;;;;;;;;;;;20.10;65.10;;;;;;7318024;19;9420;-70
2023/12/19 03:05:50;;;;;;;;;;;20.10;65.20;;;;;;7318070;19;9375;-70
2023/12/19 03:08:19;;;;;;;;;;;20.10;65.20;;;;;;7317116;19;9588;-70
2023/12/19 03:10:48;;;;;;;;;;;20.10;65.20;;;;;;7317316;19;9184;-70
2023/12/19 03:13:20;;;;;;;;;;;20.10;65.20;;;;;;7316481;19;9262;-70
2023/12/19 03:15:49;;;;;;;;;;;20.10;65.10;;;;;;7316770;19;9712;-70
2023/12/19 03:18:23;;;;;;;;;;;20.00;65.10;;;;;;7316872;19;9304;-70
2023/12/19 03:20:53;;;;;;;;;;;20.00;65.10;;;;;;7315575;19;10588;-70
2023/12/19 03:23:22;;;;;;;;;;;20.00;65.10;;;;;;7315626;19;9229;-70
2023/12/19 03:25:51;;;;;;;;;;;19.90;65.10;;;;;;7316705;19;9397;-70
2023/12/19 03:28:23;;;;;;;;;;;19.90;65.10;;;;;;7317804;19;9525;-70
2023/12/19 03:30:52;;;;;;;;;;;19.80;65.20;;;;;;7318686;19;9588;-70
2023/12/19 03:33:21;;;;;;;;;;;19.80;65.30;;;;;;7317855;19;9259;-70
2023/12/19 03:35:50;;;;;;;;;;;19.80;65.30;;;;;;7316576;19;9263;-69
2023/12/19 03:38:19;;;;;;;;;;;19.70;65.30;;;;;;7315701;19;9655;-69
2023/12/19 03:41:08;;;;;;;;;;;19.70;65.40;;;;;;7315235;19;9509;-70
2023/12/19 03:43:40;;;;;;;;;;;19.70;65.50;;;;;;7315339;19;10083;-70
2023/12/19 03:46:09;;;;;;;;;;;19.60;65.50;;;;;;7314761;19;9465;-70
2023/12/19 03:48:38;;;;;;;;;;;19.60;65.60;;;;;;7314428;19;10372;-70
2023/12/19 03:51:07;;;;;;;;;;;19.50;65.70;;;;;;7318275;19;10805;-70
2023/12/19 03:53:36;;;;;;;;;;;19.50;65.70;;;;;;7315245;19;9780;-70
2023/12/19 03:56:07;;;;;;;;;;;19.40;65.70;;;;;;7316713;19;9474;-70
2023/12/19 03:58:36;;;;;;;;;;;19.40;65.80;;;;;;7315615;19;9716;-69
2023/12/19 04:01:07;;;;;;;;;;;19.40;65.90;;;;;;7316182;19;9474;-70
2023/12/19 04:03:36;;;;;;;;;;;19.40;65.90;;;;;;7317005;19;9425;-70
2023/12/19 04:06:06;;;;;;;;;;;19.30;65.90;;;;;;7314072;19;9538;-70
2023/12/19 04:08:35;;;;;;;;;;;19.30;66.10;;;;;;7318075;19;9567;-70
2023/12/19 04:11:04;;;;;;;;;;;19.30;66.10;;;;;;7314683;19;9233;-70
2023/12/19 04:13:33;;;;;;;;;;;19.30;66.00;;;;;;7318124;19;10131;-70
2023/12/19 04:16:02;;;;;;;;;;;19.30;66.00;;;;;;7314184;19;9525;-70
2023/12/19 04:18:33;;;;;;;;;;;19.40;66.00;;;;;;7317121;19;9437;-69
2023/12/19 04:21:02;;;;;;;;;;;19.40;66.00;;;;;;7315023;19;9507;-70
2023/12/19 04:23:31;;;;;;;;;;;19.50;66.00;;;;;;7314114;19;9721;-69
2023/12/19 04:26:00;;;;;;;;;;;19.50;65.90;;;;;;7315305;19;9444;-69
2023/12/19 04:28:29;;;;;;;;;;;19.50;65.90;;;;;;7314060;19;9451;-69
2023/12/19 04:30:58;;;;;;;;;;;19.60;65.80;;;;;;7316290;19;9579;-69
2023/12/19 04:33:27;;;;;;;;;;;19.60;65.80;;;;;;7312775;19;9573;-69
2023/12/19 04:36:00;;;;;;;;;;;19.70;65.70;;;;;;7313561;19;9511;-69
2023/12/19 04:38:28;;;;;;;;;;;19.80;65.70;;;;;;7314032;19;9358;-69
2023/12/19 04:40:57;;;;;;;;;;;19.80;65.60;;;;;;7316888;19;9641;-69
2023/12/19 04:43:28;;;;;;;;;;;19.80;65.50;;;;;;7315813;19;9594;-69
2023/12/19 04:45:57;;;;;;;;;;;19.90;65.50;;;;;;7315424;19;9230;-70
2023/12/19 04:48:26;;;;;;;;;;;20.00;65.40;;;;;;7315992;19;9771;-69
2023/12/19 04:50:58;;;;;;;;;;;20.00;65.40;;;;;;7315726;19;9450;-69
2023/12/19 04:53:27;;;;;;;;;;;20.00;65.40;;;;;;7315453;19;9263;-69
2023/12/19 04:55:57;;;;;;;;;;;20.10;65.30;;;;;;7314211;19;9515;-69
2023/12/19 04:58:27;;;;;;;;;;;20.10;65.20;;;;;;7316474;19;9291;-69
2023/12/19 05:00:56;;;;;;;;;;;20.10;65.20;;;;;;7315231;19;9520;-69
2023/12/19 05:03:26;;;;;;;;;;;20.10;65.10;;;;;;7314635;19;10450;-69
2023/12/19 05:05:57;;;;;;;;;;;20.10;65.20;;;;;;7314629;19;9474;-69
2023/12/19 05:08:26;;;;;;;;;;;20.10;65.10;;;;;;7315555;19;9281;-69
2023/12/19 05:10:55;;;;;;;;;;;20.10;65.10;;;;;;7311217;19;9496;-69
2023/12/19 05:13:44;;;;;;;;;;;20.10;65.10;;;;;;7312194;19;9524;-70
2023/12/19 05:16:15;;;;;;;;;;;20.10;65.10;;;;;;7315093;19;9337;-70
2023/12/19 05:18:44;;;;;;;;;;;20.00;65.00;;;;;;7315880;19;9216;-69
2023/12/19 05:21:16;;;;;;;;;;;20.00;65.00;;;;;;7310311;19;9689;-70
2023/12/19 05:23:45;;;;;;;;;;;20.00;65.00;;;;;;7313428;19;9557;-69
2023/12/19 05:26:14;;;;;;;;;;;20.00;65.10;;;;;;7314500;19;9472;-69
2023/12/19 05:28:43;;;;;;;;;;;20.00;65.10;;;;;;7314593;19;9712;-69
2023/12/19 05:31:13;;;;;;;;;;;19.90;65.10;;;;;;7315532;19;9477;-70
2023/12/19 05:33:43;;;;;;;;;;;19.80;65.70;;;;;;7309709;19;9521;-69
2023/12/19 05:36:17;;;;;;;;;;;19.80;65.20;;;;;;7315215;19;9706;-69
2023/12/19 05:38:46;;;;;;;;;;;19.80;65.30;;;;;;7313880;19;9586;-69
2023/12/19 05:41:16;;;;;;;;;;;19.70;65.20;;;;;;7314118;19;9222;-70
2023/12/19 05:43:45;;;;;;;;;;;19.60;65.30;;;;;;7312240;19;9626;-69
2023/12/19 05:46:14;;;;;;;;;;;19.60;65.40;;;;;;7313350;19;9241;-70
2023/12/19 05:48:43;;;;;;;;;;;19.60;65.50;;;;;;7313067;19;9525;-70
2023/12/19 05:51:12;;;;;;;;;;;19.60;65.50;;;;;;7311537;19;9509;-70
2023/12/19 05:53:44;;;;;;;;;;;19.50;65.60;;;;;;7312676;19;9335;-70
2023/12/19 05:56:15;;;;;;;;;;;19.50;65.70;;;;;;7310654;19;9284;-70
2023/12/19 05:58:46;;;;;;;;;;;19.40;65.70;;;;;;7312802;19;9500;-70
2023/12/19 06:01:16;;;;;;;;;;;19.40;65.70;;;;;;7312802;19;9527;-70
2023/12/19 06:03:44;;;;;;;;;;;19.40;65.70;;;;;;7311868;19;9506;-70
2023/12/19 06:06:16;;;;;;;;;;;19.40;65.80;;;;;;7311241;19;9449;-70
2023/12/19 06:08:47;;;;;;;;;;;19.30;65.90;;;;;;7316145;19;9477;-70
2023/12/19 06:11:26;;;;;;;;;;;19.30;65.90;;;;;;7320728;19;10942;-70
2023/12/19 06:13:55;;;;;;;;;;;19.30;65.90;;;;;;7317246;19;9479;-70
2023/12/19 06:16:24;;;;;;;;;;;19.30;66.00;;;;;;7316118;19;9521;-70
2023/12/19 06:18:53;;;;;;;;;;;19.30;65.90;;;;;;7317700;19;9509;-70
2023/12/19 06:21:22;;;;;;;;;;;19.40;65.90;;;;;;7319923;19;9308;-70
2023/12/19 06:23:54;;;;;;;;;;;19.40;65.90;;;;;;7317644;19;9745;-70
2023/12/19 06:26:23;;;;;;;;;;;19.40;65.80;;;;;;7319720;19;9245;-70
2023/12/19 06:28:53;;;;;;;;;;;19.50;65.80;;;;;;7316358;19;9407;-70
2023/12/19 06:31:22;;;;;;;;;;;19.50;65.80;;;;;;7317194;19;9719;-70
2023/12/19 06:33:51;;;;;;;;;;;19.60;65.70;;;;;;7319923;19;9518;-70
2023/12/19 06:36:31;;;;;;;;;;;19.70;66.30;;;;;;7319389;19;9603;-70
2023/12/19 06:39:02;;;;;;;;;;;19.70;65.60;;;;;;7319401;19;9234;-69
2023/12/19 06:41:31;;;;;;;;;;;19.80;65.50;;;;;;7315913;19;9482;-70
2023/12/19 06:44:01;;;;;;;;;;;19.80;65.40;;;;;;7318833;19;9253;-69
2023/12/19 06:46:29;;;;;;;;;;;19.90;65.30;;;;;;7318952;19;9594;-69
2023/12/19 06:48:58;;;;;;;;;;;19.90;65.40;;;;;;7320614;19;10671;-69
2023/12/19 06:51:29;;;;;;;;;;;20.00;65.40;;;;;;7319524;19;9407;-69
2023/12/19 06:54:01;;;;;;;;;;;20.10;65.40;;;;;;7318797;19;9483;-69
2023/12/19 06:56:30;;;;;;;;;;;20.10;65.20;;;;;;7315500;19;10862;-69
2023/12/19 06:59:01;;;;;;;;;;;20.10;65.20;;;;;;7316425;19;9270;-69
2023/12/19 07:01:30;;;;;;;;;;;20.10;65.10;;;;;;7319293;19;9326;-70
2023/12/19 07:03:59;;;;;;;;;;;20.10;65.10;;;;;;7318513;19;9469;-69
2023/12/19 07:06:28;;;;;;;;;;;20.20;65.10;;;;;;7319351;19;9498;-69
2023/12/19 07:08:57;;;;;;;;;;;20.10;65.00;;;;;;7318006;19;9317;-69
2023/12/19 07:11:29;;;;;;;;;;;20.10;65.00;;;;;;7317745;19;10842;-69
2023/12/19 07:13:58;;;;;;;;;;;20.10;65.00;;;;;;7315469;19;9299;-69
2023/12/19 07:16:27;;;;;;;;;;;20.10;65.00;;;;;;7312449;19;9717;-69
2023/12/19 07:18:56;;;;;;;;;;;20.10;65.00;;;;;;7316002;19;9191;-69
2023/12/19 07:21:27;;;;;;;;;;;20.10;65.00;;;;;;7317088;19;9466;-69
2023/12/19 07:23:57;;;;;;;;;;;20.00;64.90;;;;;;7315782;19;9355;-69
2023/12/19 07:26:30;;;;;;;;;;;20.00;64.90;;;;;;7317139;19;9186;-69
2023/12/19 07:29:19;;;;;;;;;;;20.00;64.90;;;;;;7313278;19;9302;-69
2023/12/19 07:31:48;;;;;;;;;;;20.00;65.00;;;;;;7316986;19;9477;-69
2023/12/19 07:34:17;;;;;;;;;;;19.90;65.00;;;;;;7315902;19;9229;-69
2023/12/19 07:36:48;;;;;;;;;;;19.80;65.10;;;;;;7317765;19;9806;-69
2023/12/19 07:39:17;;;;;;;;;;;19.80;65.20;;;;;;7316080;19;9500;-69
2023/12/19 07:41:49;;;;;;;;;;;19.80;65.30;;;;;;7318176;19;9316;-69
2023/12/19 07:44:18;;;;;;;;;;;19.70;65.20;;;;;;7317452;19;9183;-69
2023/12/19 07:46:47;;;;;;;;;;;19.70;65.30;;;;;;7315653;19;10186;-69
2023/12/19 07:49:16;;;;;;;;;;;19.60;65.30;;;;;;7317969;19;9473;-69
2023/12/19 07:51:45;;;;;;;;;;;19.60;65.50;;;;;;7316728;19;9144;-69
2023/12/19 07:54:14;;;;;;;;;;;19.60;65.40;;;;;;7318222;19;9442;-70
2023/12/19 07:56:43;;;;;;;;;;;19.50;65.50;;;;;;7318192;19;9512;-69
2023/12/19 07:59:36;;;;;;;;;;;19.50;65.50;;;;;;7315113;19;9233;-70
2023/12/19 08:02:06;;;;;;;;;;;19.40;65.60;;;;;;7316251;19;11756;-69
2023/12/19 08:04:36;;;;;;;;;;;19.50;65.70;;;;;;7316514;19;9556;-69
2023/12/19 08:07:06;;;;;;;;;;;19.40;65.80;;;;;;7317631;19;9451;-69
2023/12/19 08:09:34;;;;;;;;;;;19.30;65.80;;;;;;7318010;19;9795;-69
2023/12/19 08:12:04;;;;;;;;;;;19.30;65.80;;;;;;7316660;19;9758;-69
2023/12/19 08:14:36;;;;;;;;;;;19.30;65.80;;;;;;7315520;19;9513;-70
2023/12/19 08:17:05;;;;;;;;;;;19.30;65.90;;;;;;7318044;19;9269;-69
2023/12/19 08:19:34;;;;;;;;;;;19.30;65.90;;;;;;7315153;19;9455;-69
2023/12/19 08:22:03;;;;;;;;;;;19.30;65.90;;;;;;7317584;19;10201;-69
2023/12/19 08:24:32;;;;;;;;;;;19.30;65.90;;;;;;7315859;19;10721;-70
2023/12/19 08:27:01;;;;;;;;;;;19.30;65.80;;;;;;7315026;19;9724;-69
2023/12/19 08:29:30;;;;;;;;;;;19.30;65.80;;;;;;7316872;19;9182;-69
2023/12/19 08:32:02;;;;;;;;;;;19.40;65.80;;;;;;7315248;19;9626;-69
2023/12/19 08:34:32;;;;;;;;;;;19.50;65.80;;;;;;7317477;19;9466;-70
2023/12/19 08:37:01;;;;;;;;;;;19.50;65.80;;;;;;7314537;19;9531;-69
2023/12/19 08:39:30;;;;;;;;;;;19.60;65.70;;;;;;7316394;19;9454;-69
2023/12/19 08:41:59;;;;;;;;;;;19.60;65.50;;;;;;7315049;19;9342;-69
2023/12/19 08:44:28;;;;;;;;;;;19.70;65.60;;;;;;7316073;19;9703;-69
2023/12/19 08:46:58;;;;;;;;;;;19.70;65.40;;;;;;7314893;19;9391;-68
2023/12/19 08:49:30;;;;;;;;;;;19.80;65.40;;;;;;7316358;19;9524;-69
2023/12/19 08:52:00;;;;;;;;;;;19.90;65.40;;;;;;7314534;19;9461;-69
2023/12/19 08:54:29;;;;;;;;;;;19.90;65.40;;;;;;7314776;19;9506;-69
2023/12/19 08:56:59;;;;;;;;;;;20.00;65.40;;;;;;7314843;19;12146;-69
2023/12/19 08:59:29;;;;;;;;;;;20.00;65.20;;;;;;7311948;19;9384;-70
2023/12/19 09:01:59;;;;;;;;;;;20.10;65.20;;;;;;7316283;19;9481;-69
2023/12/19 09:04:31;;;;;;;;;;;20.10;65.10;;;;;;7307223;19;9513;-69
2023/12/19 09:07:00;;;;;;;;;;;20.10;65.10;;;;;;7314150;19;9228;-69
2023/12/19 09:09:29;;;;;;;;;;;20.10;65.00;;;;;;7309195;19;9529;-70
2023/12/19 09:11:58;;;;;;;;;;;20.20;65.10;;;;;;7313392;19;9390;-69
2023/12/19 09:14:27;;;;;;;;;;;20.20;65.10;;;;;;7312314;19;9521;-69
2023/12/19 09:16:56;;;;;;;;;;;20.20;65.10;;;;;;7310220;19;10717;-69
2023/12/19 09:19:26;;;;;;;;;;;20.10;65.00;;;;;;7311983;19;9254;-69
2023/12/19 09:21:57;;;;;;;;;;;20.10;64.90;;;;;;7314235;19;9436;-69
2023/12/19 09:24:30;;;;;;;;;;;20.10;64.90;;;;;;7314471;19;9604;-69
2023/12/19 09:26:59;;;;;;;;;;;20.10;64.90;;;;;;7312788;19;9501;-69
2023/12/19 09:29:28;;;;;;;;;;;20.10;64.90;;;;;;7313243;19;9688;-69
2023/12/19 09:31:57;;;;;;;;;;;20.10;64.90;;;;;;7313232;19;9466;-69
2023/12/19 09:34:26;;;;;;;;;;;20.00;64.90;;;;;;7310649;19;10152;-68
2023/12/19 09:36:58;;;;;;;;;;;20.00;64.90;;;;;;7307923;19;9421;-69
2023/12/19 09:39:26;;;;;;;;;;;20.00;65.00;;;;;;7307218;19;9487;-69
2023/12/19 09:41:56;;;;;;;;;;;19.90;65.00;;;;;;7312702;19;9867;-69
2023/12/19 09:44:25;;;;;;;;;;;19.90;65.10;;;;;;7317559;19;9372;-69
2023/12/19 09:46:55;;;;;;;;;;;19.80;65.00;;;;;;7320955;19;9621;-69
2023/12/19 09:49:26;;;;;;;;;;;19.80;65.70;;;;;;7320188;19;9465;-69
2023/12/19 09:51:58;;;;;;;;;;;19.80;65.20;;;;;;7322260;19;9188;-69
2023/12/19 09:54:27;;;;;;;;;;;19.70;65.30;;;;;;7316134;19;9352;-68
2023/12/19 09:56:58;;;;;;;;;;;19.70;65.30;;;;;;7319315;19;9589;-69
2023/12/19 09:59:30;;;;;;;;;;;19.60;65.40;;;;;;7320332;19;9250;-68
2023/12/19 10:01:59;;;;;;;;;;;19.60;65.50;;;;;;7320678;19;9429;-69
2023/12/19 10:04:28;;;;;;;;;;;19.60;65.50;;;;;;7318091;19;9499;-69
2023/12/19 10:07:18;;;;;;;;;;;19.50;65.60;;;;;;7320705;19;9410;-69
2023/12/19 10:09:56;;;;;;;;;;;19.50;65.60;;;;;;7319460;19;9535;-69
2023/12/19 10:12:27;;;;;;;;;;;19.40;65.70;;;;;;7321607;19;9662;-69
2023/12/19 10:15:13;;;;;;;;;;;19.40;65.70;;;;;;7317683;19;9469;-69
2023/12/19 10:17:43;;;;;;;;;;;19.40;65.70;;;;;;7318407;19;9222;-68
2023/12/19 10:20:13;;;;;;;;;;;19.40;65.80;;;;;;7319106;19;9598;-69
2023/12/19 10:22:45;;;;;;;;;;;19.30;65.80;;;;;;7319443;19;9559;-69
2023/12/19 10:25:23;;;;;;;;;;;19.30;65.90;;;;;;7320051;19;9651;-69
2023/12/19 10:28:07;;;;;;;;;;;19.30;66.00;;;;;;7313812;19;9329;-68
2023/12/19 10:30:36;;;;;;;;;;;19.30;66.00;;;;;;7319058;19;9791;-69
2023/12/19 10:33:06;;;;;;;;;;;19.30;65.90;;;;;;7319060;19;9269;-69
2023/12/19 10:35:39;;;;;;;;;;;19.30;65.90;;;;;;7319142;19;9462;-69
2023/12/19 10:38:11;;;;;;;;;;;19.40;65.90;;;;;;7318766;19;9478;-69
2023/12/19 10:40:40;;;;;;;;;;;19.40;65.80;;;;;;7319017;19;9466;-69
2023/12/19 10:43:08;;;;;;;;;;;19.40;66.40;;;;;;7319302;19;9478;-69
2023/12/19 10:45:38;;;;;;;;;;;19.50;65.80;;;;;;7314973;19;9901;-69
2023/12/19 10:48:09;;;;;;;;;;;19.60;65.70;;;;;;7309411;19;9634;-67
2023/12/19 10:50:38;;;;;;;;;;;19.60;65.70;;;;;;7316643;19;12044;-67
2023/12/19 10:53:15;;;;;;;;;;;19.70;65.80;;;;;;7316494;19;9534;-68
2023/12/19 10:55:49;;;;;;;;;;;19.80;65.70;;;;;;7318324;19;9663;-68
2023/12/19 10:58:23;;;;;;;;;;;19.80;65.70;;;;;;7318185;19;9617;-68
2023/12/19 11:00:55;;;;;;;;;;;19.90;65.60;;;;;;7317449;19;9508;-68
2023/12/19 11:03:33;;;;;;;;;;;19.90;65.60;;;;;;7318232;19;9522;-68
2023/12/19 11:06:26;;;;;;;;;;;20.00;65.50;;;;;;7314618;19;9253;-68
2023/12/19 11:09:05;;;;;;;;;;;20.10;65.50;;;;;;7318211;19;9469;-68
2023/12/19 11:11:39;;;;;;;;;;;20.10;65.40;;;;;;7319069;19;9240;-67
2023/12/19 11:14:29;;;;;;;;;;;20.10;65.40;;;;;;7315153;19;9505;-67
2023/12/19 11:17:07;;;;;;;;;;;20.10;65.40;;;;;;7319343;19;9658;-67
2023/12/19 11:19:45;;;;;;;;;;;20.20;65.50;;;;;;7316010;19;10641;-67
2023/12/19 11:22:22;;;;;;;;;;;20.20;65.50;;;;;;7317845;19;10667;-68
2023/12/19 11:25:05;;;;;;;;;;;20.20;65.50;;;;;;7318903;19;9229;-68
2023/12/19 11:27:43;;;;;;;;;;;20.20;65.50;;;;;;7316535;19;10705;-68
2023/12/19 11:30:39;;;;;;;;;;;20.20;65.50;;;;;;7317960;19;9420;-68
2023/12/19 11:33:11;;;;;;;;;;;20.20;65.50;;;;;;7318101;19;9485;-68
2023/12/19 11:35:41;;;;;;;;;;;20.10;65.50;;;;;;7315197;19;9744;-68
2023/12/19 11:38:29;;;;;;;;;;;20.10;65.50;;;;;;7317668;19;9272;-68
2023/12/19 11:41:01;;;;;;;;;;;20.10;65.60;;;;;;7317541;19;9461;-68
2023/12/19 11:44:00;;;;;;;;;;;20.10;65.60;;;;;;7317185;19;9237;-68
2023/12/19 11:46:29;;;;;;;;;;;20.00;65.60;;;;;;7316685;19;9407;-68
2023/12/19 11:48:58;;;;;;;;;;;20.00;65.70;;;;;;7311002;19;9230;-68
2023/12/19 11:51:58;;;;;;;;;;;20.00;65.70;;;;;;7318346;19;9288;-68
2023/12/19 11:54:27;;;;;;;;;;;20.00;65.80;;;;;;7315812;19;10702;-68
2023/12/19 11:57:04;;;;;;;;;;;19.90;65.80;;;;;;7317005;19;12895;-68
2023/12/19 11:59:51;;;;;;;;;;;19.90;65.90;;;;;;7316665;19;9340;-68
2023/12/19 12:02:30;;;;;;;;;;;19.90;66.60;;;;;;7316968;19;9737;-70
2023/12/19 12:05:08;;;;;;;;;;;19.80;66.00;;;;;;7313751;19;9622;-67
2023/12/19 12:07:42;;;;;;;;;;;19.80;66.10;;;;;;7316392;19;9601;-68
2023/12/19 12:10:12;;;;;;;;;;;19.80;66.30;;;;;;7316070;19;9285;-68
2023/12/19 12:12:44;;;;;;;;;;;19.80;66.40;;;;;;7313937;19;9341;-67
2023/12/19 12:15:17;;;;;;;;;;;19.70;66.40;;;;;;7317440;19;9515;-68
2023/12/19 12:17:46;;;;;;;;;;;19.70;66.50;;;;;;7314852;19;9559;-67
2023/12/19 12:20:16;;;;;;;;;;;19.60;66.50;;;;;;7314776;19;9236;-69
2023/12/19 12:22:47;;;;;;;;;;;19.60;66.50;;;;;;7311414;19;9419;-68
2023/12/19 12:25:19;;;;;;;;;;;19.60;66.70;;;;;;7316943;19;9465;-67
2023/12/19 12:27:55;;;;;;;;;;;19.50;66.70;;;;;;7311053;19;10633;-68
2023/12/19 12:30:27;;;;;;;;;;;19.50;66.80;;;;;;7310050;19;9186;-68
2023/12/19 12:32:56;;;;;;;;;;;19.50;67.50;;;;;;7313697;19;9846;-68
2023/12/19 12:35:28;;;;;;;;;;;19.50;66.90;;;;;;7291140;19;11760;-68
2023/12/19 12:38:01;;;;;;;;;;;19.40;66.80;;;;;;7311836;19;9550;-68
2023/12/19 12:40:33;;;;;;;;;;;19.40;66.80;;;;;;7314721;19;9447;-69
2023/12/19 12:43:39;;;;;;;;;;;19.40;66.80;;;;;;7310499;19;9515;-68
2023/12/19 12:46:12;;;;;;;;;;;19.40;66.90;;;;;;7316600;19;9608;-68
2023/12/19 12:48:44;;;;;;;;;;;19.40;67.00;;;;;;7312500;19;10595;-68
2023/12/19 12:51:13;;;;;;;;;;;19.30;67.00;;;;;;7317622;19;9376;-68
2023/12/19 12:53:42;;;;;;;;;;;19.30;67.00;;;;;;7314198;19;9477;-68
2023/12/19 12:56:33;;;;;;;;;;;19.30;67.00;;;;;;7309540;19;9616;-68
2023/12/19 12:59:07;;;;;;;;;;;19.30;67.10;;;;;;7314269;19;9274;-68
2023/12/19 13:01:37;;;;;;;;;;;19.30;67.00;;;;;;7312273;19;10359;-68
2023/12/19 13:04:07;;;;;;;;;;;19.30;67.00;;;;;;7310717;19;9805;-68
2023/12/19 13:06:41;;;;;;;;;;;19.30;66.90;;;;;;7314390;19;9494;-68
2023/12/19 13:09:13;;;;;;;;;;;19.40;66.90;;;;;;7312800;19;9688;-68
2023/12/19 13:11:44;;;;;;;;;;;19.40;66.80;;;;;;7311871;19;9261;-68
2023/12/19 13:14:17;;;;;;;;;;;19.50;66.70;;;;;;7310336;19;9581;-68
2023/12/19 13:16:46;;;;;;;;;;;19.50;66.60;;;;;;7314239;19;9269;-68
2023/12/19 13:19:35;;;;;;;;;;;19.60;66.60;;;;;;7311892;19;10522;-69
2023/12/19 13:22:05;;;;;;;;;;;19.70;66.50;;;;;;7317797;19;9303;-68
2023/12/19 13:24:34;;;;;;;;;;;19.70;66.40;;;;;;7319749;19;9418;-69
2023/12/19 13:27:03;;;;;;;;;;;19.80;66.90;;;;;;7319855;19;9309;-68
2023/12/19 13:29:35;;;;;;;;;;;19.90;66.30;;;;;;7320902;19;9553;-70
2023/12/19 13:32:07;;;;;;;;;;;19.90;66.20;;;;;;7317991;19;9604;-68
2023/12/19 13:34:36;;;;;;;;;;;20.00;66.20;;;;;;7318664;19;9450;-68
2023/12/19 13:37:06;;;;;;;;;;;20.00;66.10;;;;;;7316808;19;9471;-68
2023/12/19 13:39:35;;;;;;;;;;;20.10;66.10;;;;;;7318170;19;9345;-69
2023/12/19 13:42:05;;;;;;;;;;;20.10;66.00;;;;;;7317847;19;9650;-68
2023/12/19 13:44:37;;;;;;;;;;;20.10;66.00;;;;;;7318737;19;11184;-69
2023/12/19 13:47:06;;;;;;;;;;;20.20;65.90;;;;;;7318774;19;9302;-68
2023/12/19 13:49:34;;;;;;;;;;;20.10;65.90;;;;;;7315434;19;9321;-68
2023/12/19 13:52:04;;;;;;;;;;;20.20;65.80;;;;;;7316011;19;9265;-68
2023/12/19 13:54:32;;;;;;;;;;;20.10;65.80;;;;;;7318451;19;9445;-68
2023/12/19 13:57:02;;;;;;;;;;;20.10;65.80;;;;;;7317274;19;9413;-69
2023/12/19 13:59:35;;;;;;;;;;;20.10;65.80;;;;;;7318228;19;9499;-69
2023/12/19 14:02:07;;;;;;;;;;;20.10;65.80;;;;;;7316166;19;9319;-70
2023/12/19 14:04:36;;;;;;;;;;;20.10;65.80;;;;;;7318206;19;9393;-69
2023/12/19 14:07:06;;;;;;;;;;;20.10;65.80;;;;;;7315302;19;9466;-68
2023/12/19 14:09:35;;;;;;;;;;;20.10;65.80;;;;;;7315356;19;9548;-68
2023/12/19 14:12:04;;;;;;;;;;;20.10;65.80;;;;;;7319321;19;9481;-68
2023/12/19 14:14:53;;;;;;;;;;;20.00;65.80;;;;;;7315369;19;9190;-69
2023/12/19 14:17:26;;;;;;;;;;;20.00;65.90;;;;;;7316055;19;9337;-68
2023/12/19 14:19:52;;;;;;;;;;;20.00;66.00;;;;;;7317666;19;9709;-69
2023/12/19 14:22:21;;;;;;;;;;;19.90;65.90;;;;;;7317848;19;9457;-69
2023/12/19 14:24:51;;;;;;;;;;;19.90;66.00;;;;;;7318876;19;9452;-69
2023/12/19 14:27:21;;;;;;;;;;;19.80;66.00;;;;;;7318042;19;9461;-68
2023/12/19 14:29:52;;;;;;;;;;;19.80;66.10;;;;;;7318003;19;9604;-68
2023/12/19 14:32:22;;;;;;;;;;;19.80;66.20;;;;;;7317474;19;9564;-68
2023/12/19 14:34:55;;;;;;;;;;;19.70;66.20;;;;;;7315940;19;9770;-69
2023/12/19 14:37:24;;;;;;;;;;;19.70;66.20;;;;;;7317996;19;9517;-69
2023/12/19 14:39:53;;;;;;;;;;;19.70;66.30;;;;;;7313281;19;11193;-69
2023/12/19 14:42:22;;;;;;;;;;;19.60;66.40;;;;;;7314125;19;9433;-71
2023/12/19 14:44:51;;;;;;;;;;;19.60;66.40;;;;;;7317002;19;9774;-69
2023/12/19 14:47:20;;;;;;;;;;;19.60;66.50;;;;;;7319161;19;9616;-69
2023/12/19 14:49:50;;;;;;;;;;;19.60;66.50;;;;;;7317823;19;9608;-69
2023/12/19 14:52:26;;;;;;;;;;;19.50;66.50;;;;;;7315836;19;9526;-69
2023/12/19 14:54:57;;;;;;;;;;;19.50;66.60;;;;;;7316028;19;9434;-69